Time;durP1;ratioP1;P1;durP2;ratioP2;P2;SDS_P1;SDS_P2;PMS_P1;PMS_P2;Temp;Humidity;BMP_temperature;BMP_pressure;BME280_temperature;BME280_humidity;BME280_pressure;Samples;Min_cycle;Max_cycle;Signal;HPM_P1;HPM_P2
2022/03/04 00:00:44;;;;;;;24.25;12.45;;;;;;;1.96;64.10;101915.56;5040565;28;20017;-83
2022/03/04 00:03:11;;;;;;;22.45;12.20;;;;;;;1.89;64.59;101909.91;5034989;28;20136;-83
2022/03/04 00:05:36;;;;;;;23.02;11.75;;;;;;;1.83;64.47;101917.16;5042999;28;20025;-82
2022/03/04 00:08:02;;;;;;;21.77;11.70;;;;;;;1.81;64.80;101920.41;5044401;28;20076;-82
2022/03/04 00:10:27;;;;;;;25.05;12.05;;;;;;;1.77;64.38;101924.41;5043412;28;20025;-82
2022/03/04 00:12:54;;;;;;;23.58;12.65;;;;;;;1.75;64.54;101928.53;5040105;28;20037;-82
2022/03/04 00:15:20;;;;;;;22.20;11.63;;;;;;;1.71;64.91;101926.53;5035136;28;20030;-83
2022/03/04 00:17:48;;;;;;;22.50;12.23;;;;;;;1.67;64.99;101924.50;5031985;28;20067;-79
2022/03/04 00:20:13;;;;;;;24.15;12.55;;;;;;;1.65;65.26;101936.31;5039552;28;20025;-79
2022/03/04 00:22:39;;;;;;;23.50;12.20;;;;;;;1.62;64.90;101936.97;5044861;28;20085;-78
2022/03/04 00:25:05;;;;;;;21.05;12.20;;;;;;;1.60;64.87;101929.94;5035195;28;20017;-78
2022/03/04 00:27:31;;;;;;;23.83;12.25;;;;;;;1.54;65.45;101933.81;5035013;28;20456;-78
2022/03/04 00:29:56;;;;;;;24.17;12.77;;;;;;;1.52;66.02;101934.47;5036365;28;20010;-78
2022/03/04 00:32:21;;;;;;;22.13;11.70;;;;;;;1.49;65.86;101930.00;5043168;28;20033;-79
2022/03/04 00:34:47;;;;;;;23.30;13.00;;;;;;;1.46;66.38;101929.72;5034674;28;20013;-78
2022/03/04 00:37:12;;;;;;;22.52;12.30;;;;;;;1.46;65.85;101932.31;5043032;28;20088;-78
2022/03/04 00:39:40;;;;;;;24.63;12.73;;;;;;;1.45;66.49;101937.31;5055539;28;20021;-79
2022/03/04 00:42:06;;;;;;;23.42;12.88;;;;;;;1.41;66.65;101937.88;5043307;28;20017;-79
2022/03/04 00:44:31;;;;;;;23.27;12.30;;;;;;;1.37;66.53;101941.88;5046936;28;20299;-79
2022/03/04 00:46:57;;;;;;;23.50;12.23;;;;;;;1.34;66.33;101942.53;5037418;28;20014;-79
2022/03/04 00:49:22;;;;;;;24.48;12.57;;;;;;;1.31;66.69;101942.28;5038977;28;20021;-79
2022/03/04 00:51:47;;;;;;;21.67;11.55;;;;;;;1.30;66.60;101935.34;5026976;28;20033;-80
2022/03/04 00:54:13;;;;;;;22.83;12.30;;;;;;;1.26;66.49;101937.56;5035965;28;20097;-80
2022/03/04 00:56:38;;;;;;;23.55;12.70;;;;;;;1.25;66.27;101943.50;5035765;28;20176;-80
2022/03/04 00:59:04;;;;;;;22.35;11.80;;;;;;;1.24;66.13;101934.88;5034498;28;20021;-80
2022/03/04 01:01:30;;;;;;;22.75;12.05;;;;;;;1.21;66.87;101945.78;5045433;28;20279;-80
2022/03/04 01:03:55;;;;;;;22.88;13.05;;;;;;;1.17;67.32;101941.22;5034249;28;20025;-80
2022/03/04 01:06:21;;;;;;;23.40;12.43;;;;;;;1.16;67.21;101947.13;5035263;28;20048;-80
2022/03/04 01:08:46;;;;;;;24.10;12.25;;;;;;;1.14;67.79;101948.66;5031597;28;20092;-80
2022/03/04 01:11:11;;;;;;;26.08;12.52;;;;;;;1.13;67.44;101952.00;5035945;28;20097;-80
2022/03/04 01:13:37;;;;;;;23.92;12.23;;;;;;;1.10;67.04;101954.34;5041442;28;20070;-80
2022/03/04 01:16:02;;;;;;;22.27;12.65;;;;;;;1.09;66.80;101951.66;5036525;28;20014;-80
2022/03/04 01:18:28;;;;;;;26.33;13.73;;;;;;;1.06;66.92;101947.16;5040171;28;20582;-80
2022/03/04 01:20:53;;;;;;;24.17;12.73;;;;;;;1.06;67.28;101952.28;5036870;28;20040;-80
2022/03/04 01:23:19;;;;;;;25.13;13.13;;;;;;;1.04;66.91;101946.13;5042008;28;20059;-80
2022/03/04 01:25:44;;;;;;;24.73;13.18;;;;;;;1.04;66.87;101938.41;5035113;28;20428;-80
2022/03/04 01:28:10;;;;;;;22.60;12.80;;;;;;;1.04;66.90;101946.13;5035922;28;20044;-80
2022/03/04 01:30:35;;;;;;;24.55;13.30;;;;;;;1.01;67.07;101943.31;5036088;28;20068;-80
2022/03/04 01:33:00;;;;;;;24.10;13.00;;;;;;;0.99;66.75;101939.75;5044949;28;20358;-80
2022/03/04 01:35:26;;;;;;;25.15;13.38;;;;;;;0.95;67.16;101941.16;5031429;28;20092;-80
2022/03/04 01:37:51;;;;;;;25.38;13.90;;;;;;;0.93;66.86;101942.72;5030926;28;20018;-80
2022/03/04 01:40:16;;;;;;;24.52;13.25;;;;;;;0.92;67.28;101937.47;5032918;28;20084;-80
2022/03/04 01:42:42;;;;;;;24.30;13.25;;;;;;;0.89;66.70;101934.66;5038890;28;20018;-80
2022/03/04 01:45:09;;;;;;;26.58;13.30;;;;;;;0.84;67.35;101935.19;5034497;28;20272;-80
2022/03/04 01:47:38;;;;;;;23.33;13.10;;;;;;;0.81;68.70;101937.50;5031647;28;20017;-80
2022/03/04 01:50:04;;;;;;;23.33;11.98;;;;;;;0.76;68.25;101931.09;5035483;28;20243;-80
2022/03/04 01:52:29;;;;;;;22.70;12.63;;;;;;;0.73;68.64;101938.53;5034433;28;20213;-80
2022/03/04 01:54:55;;;;;;;24.90;13.15;;;;;;;0.70;68.00;101933.16;5037648;28;20040;-80
2022/03/04 01:57:20;;;;;;;23.23;12.93;;;;;;;0.67;68.55;101938.94;5044388;28;20048;-80
2022/03/04 01:59:46;;;;;;;26.10;13.55;;;;;;;0.62;68.46;101935.13;5029855;28;20282;-79
2022/03/04 02:02:12;;;;;;;24.17;12.60;;;;;;;0.59;68.03;101933.97;5026113;28;20017;-79
2022/03/04 02:04:37;;;;;;;24.85;13.10;;;;;;;0.55;67.77;101943.09;5030186;28;20046;-79
2022/03/04 02:07:04;;;;;;;28.23;14.18;;;;;;;0.52;68.22;101943.72;5030483;28;20224;-79
2022/03/04 02:09:29;;;;;;;23.58;13.30;;;;;;;0.47;68.50;101937.31;5034795;28;20072;-79
2022/03/04 02:11:54;;;;;;;25.73;13.18;;;;;;;0.44;68.31;101944.75;5036026;28;20045;-79
2022/03/04 02:14:20;;;;;;;27.30;13.70;;;;;;;0.42;68.33;101946.31;5030592;28;20076;-80
2022/03/04 02:16:48;;;;;;;26.63;13.30;;;;;;;0.42;68.62;101947.94;5037036;28;20097;-79
2022/03/04 02:19:14;;;;;;;26.75;13.50;;;;;;;0.38;69.29;101939.13;5034960;28;20256;-80
2022/03/04 02:21:56;;;;;;;25.23;14.35;;;;;;;0.38;68.61;101936.56;5031635;28;20025;-79
2022/03/04 02:24:24;;;;;;;27.95;13.90;;;;;;;0.36;68.85;101948.34;5028229;28;20016;-79
2022/03/04 02:26:50;;;;;;;25.73;14.07;;;;;;;0.35;68.49;101944.00;5037346;28;20084;-86
2022/03/04 02:29:16;;;;;;;26.40;13.35;;;;;;;0.33;68.37;101936.19;5029171;28;20027;-87
2022/03/04 02:31:41;;;;;;;25.90;13.75;;;;;;;0.34;68.98;101937.97;5036551;28;20037;-87
2022/03/04 02:34:07;;;;;;;26.45;13.80;;;;;;;0.35;68.84;101928.63;5040862;28;20145;-86
2022/03/04 02:36:34;;;;;;;26.00;13.40;;;;;;;0.34;68.41;101934.50;5037008;28;20028;-86
2022/03/04 02:38:59;;;;;;;24.67;13.77;;;;;;;0.33;68.97;101927.59;5040060;28;20013;-84
2022/03/04 02:41:24;;;;;;;27.38;14.32;;;;;;;0.31;69.04;101924.00;5029426;28;20032;-87
2022/03/04 02:43:50;;;;;;;27.02;14.15;;;;;;;0.29;69.28;101920.41;5035369;28;20032;-86
2022/03/04 02:46:15;;;;;;;25.48;14.13;;;;;;;0.28;69.46;101923.75;5032220;28;20038;-86
2022/03/04 02:48:41;;;;;;;27.90;13.63;;;;;;;0.26;69.24;101925.28;5029522;28;20067;-86
2022/03/04 02:51:07;;;;;;;26.23;13.38;;;;;;;0.22;69.13;101925.78;5035830;28;20197;-86
2022/03/04 02:53:32;;;;;;;25.98;13.48;;;;;;;0.16;69.31;101924.53;5037626;28;20057;-86
2022/03/04 02:55:58;;;;;;;26.92;13.80;;;;;;;0.14;69.50;101922.59;5037606;28;20087;-86
2022/03/04 02:58:23;;;;;;;25.45;13.35;;;;;;;0.14;70.40;101920.94;5037498;28;20315;-80
2022/03/04 03:00:49;;;;;;;27.25;14.02;;;;;;;0.14;70.39;101925.16;5047241;28;20016;-80
2022/03/04 03:03:14;;;;;;;24.63;12.88;;;;;;;0.12;70.63;101927.59;5036968;28;20050;-80
2022/03/04 03:05:39;;;;;;;28.20;13.60;;;;;;;0.13;71.09;101920.81;5036733;28;20315;-80
2022/03/04 03:08:05;;;;;;;28.38;14.13;;;;;;;0.13;70.52;101931.06;5033716;28;20195;-80
2022/03/04 03:10:32;;;;;;;30.00;14.10;;;;;;;0.12;70.93;101932.72;5042840;28;20072;-80
2022/03/04 03:12:58;;;;;;;25.38;13.27;;;;;;;0.13;71.21;101929.41;5031250;28;20025;-80
2022/03/04 03:15:24;;;;;;;26.92;14.10;;;;;;;0.12;71.44;101925.03;5037132;28;20285;-80
2022/03/04 03:17:49;;;;;;;26.10;13.38;;;;;;;0.11;71.71;101920.69;5037030;28;20037;-80
2022/03/04 03:20:15;;;;;;;29.25;13.88;;;;;;;0.10;72.20;101911.22;5034282;28;20012;-80
2022/03/04 03:22:40;;;;;;;26.20;13.57;;;;;;;0.10;71.60;101918.00;5029256;28;20288;-80
2022/03/04 03:25:06;;;;;;;24.52;13.60;;;;;;;0.06;72.01;101916.84;5031188;28;20189;-80
2022/03/04 03:27:32;;;;;;;25.98;13.75;;;;;;;0.03;72.51;101914.03;5044389;28;20035;-87
2022/03/04 03:29:57;;;;;;;26.13;13.45;;;;;;;0.03;72.35;101915.69;5043813;28;20041;-86
2022/03/04 03:32:22;;;;;;;26.30;13.48;;;;;;;0.02;72.11;101919.94;5050141;28;20025;-86
2022/03/04 03:34:48;;;;;;;27.73;14.02;;;;;;;-0.01;71.69;101920.56;5052325;28;20013;-87
2022/03/04 03:37:13;;;;;;;26.42;13.35;;;;;;;-0.03;71.16;101918.63;5052453;28;20016;-85
2022/03/04 03:39:39;;;;;;;27.45;14.00;;;;;;;-0.06;72.27;101926.06;5043936;28;20040;-86
2022/03/04 03:42:05;;;;;;;25.55;13.57;;;;;;;-0.09;71.63;101920.69;5043597;28;20021;-86
2022/03/04 03:44:30;;;;;;;26.60;13.73;;;;;;;-0.11;71.66;101927.38;5044231;28;20072;-86
2022/03/04 03:46:56;;;;;;;27.35;13.90;;;;;;;-0.14;71.28;101928.00;5043124;28;20179;-86
2022/03/04 03:49:22;;;;;;;27.75;13.75;;;;;;;-0.16;71.41;101926.06;5043954;28;20031;-87
2022/03/04 03:51:48;;;;;;;27.52;13.40;;;;;;;-0.21;71.09;101924.00;5042469;28;20045;-86
2022/03/04 03:54:14;;;;;;;29.42;14.38;;;;;;;-0.24;71.12;101926.31;5043589;28;20052;-86
2022/03/04 03:56:42;;;;;;;24.63;12.80;;;;;;;-0.29;71.50;101919.00;5029949;28;20178;-86
2022/03/04 03:59:08;;;;;;;25.15;14.02;;;;;;;-0.32;71.60;101929.00;5035916;28;20563;-87
2022/03/04 04:01:33;;;;;;;26.60;13.90;;;;;;;-0.36;71.76;101938.09;5029203;28;20013;-87
2022/03/04 04:03:59;;;;;;;25.73;13.18;;;;;;;-0.38;71.65;101926.81;5035472;28;20026;-87
2022/03/04 04:06:24;;;;;;;28.30;13.88;;;;;;;-0.41;71.47;101934.22;5026249;28;20057;-87
2022/03/04 04:08:50;;;;;;;25.42;13.82;;;;;;;-0.46;71.71;101936.41;5031315;28;20026;-87
2022/03/04 04:11:15;;;;;;;25.13;13.98;;;;;;;-0.48;71.99;101931.91;5038064;28;20252;-87
2022/03/04 04:13:40;;;;;;;26.92;13.75;;;;;;;-0.49;71.62;101937.78;5034391;28;20034;-87
2022/03/04 04:16:06;;;;;;;26.83;13.32;;;;;;;-0.54;71.89;101943.44;5039219;28;20017;-87
2022/03/04 04:18:31;;;;;;;24.65;13.07;;;;;;;-0.56;71.39;101952.63;5033121;28;20033;-87
2022/03/04 04:20:57;;;;;;;27.77;13.15;;;;;;;-0.57;71.60;101947.38;5035682;28;20057;-88
2022/03/04 04:23:22;;;;;;;28.90;14.07;;;;;;;-0.58;72.31;101951.59;5027791;28;20018;-87
2022/03/04 04:25:47;;;;;;;26.05;13.38;;;;;;;-0.61;72.00;101948.78;5032367;28;20013;-87
2022/03/04 04:28:13;;;;;;;26.83;14.13;;;;;;;-0.61;72.16;101947.88;5031219;28;20020;-81
2022/03/04 04:30:39;;;;;;;28.10;14.05;;;;;;;-0.62;72.47;101953.75;5037482;28;20045;-81
2022/03/04 04:33:04;;;;;;;26.38;13.65;;;;;;;-0.62;72.21;101954.66;5031479;28;20021;-81
2022/03/04 04:35:29;;;;;;;25.77;13.32;;;;;;;-0.63;72.24;101946.84;5030218;28;20021;-81
2022/03/04 04:37:55;;;;;;;28.00;14.38;;;;;;;-0.64;72.29;101951.06;5031457;28;20034;-81
2022/03/04 04:40:20;;;;;;;27.23;13.73;;;;;;;-0.66;72.04;101960.28;5031996;28;20025;-81
2022/03/04 04:42:45;;;;;;;28.83;14.07;;;;;;;-0.66;72.32;101956.84;5032853;28;20022;-81
2022/03/04 04:45:11;;;;;;;29.58;14.05;;;;;;;-0.67;72.54;101960.16;5030205;28;20196;-81
2022/03/04 04:47:37;;;;;;;26.42;13.57;;;;;;;-0.70;72.58;101960.78;5035261;28;20040;-81
2022/03/04 04:50:03;;;;;;;25.75;13.15;;;;;;;-0.74;72.49;101962.19;5031517;28;20265;-81
2022/03/04 04:52:28;;;;;;;30.23;14.32;;;;;;;-0.74;72.48;101961.25;5033439;28;20099;-81
2022/03/04 04:54:53;;;;;;;27.98;14.43;;;;;;;-0.78;72.47;101967.78;5034265;28;20017;-81
2022/03/04 04:57:19;;;;;;;25.95;14.63;;;;;;;-0.78;72.54;101959.19;5039784;28;20248;-81
2022/03/04 04:59:44;;;;;;;26.27;14.18;;;;;;;-0.81;72.38;101961.50;5031279;28;20013;-81
2022/03/04 05:02:13;;;;;;;28.25;14.07;;;;;;;-0.83;72.75;101963.91;5031262;28;20283;-81
2022/03/04 05:04:39;;;;;;;26.67;14.63;;;;;;;-0.84;72.51;101961.22;5028145;28;20021;-81
2022/03/04 05:07:04;;;;;;;26.95;14.07;;;;;;;-0.83;73.06;101953.69;5037820;28;20021;-81
2022/03/04 05:09:30;;;;;;;29.30;14.68;;;;;;;-0.84;73.05;101956.09;5038258;28;20059;-81
2022/03/04 05:11:55;;;;;;;28.42;14.80;;;;;;;-0.87;72.92;101956.72;5031575;28;20033;-81
2022/03/04 05:14:20;;;;;;;28.27;13.95;;;;;;;-0.87;73.73;101956.72;5032650;28;20041;-81
2022/03/04 05:16:46;;;;;;;25.90;13.75;;;;;;;-0.89;73.83;101956.59;5035553;28;20231;-81
2022/03/04 05:19:11;;;;;;;27.85;14.23;;;;;;;-0.92;73.61;101948.66;5028712;28;20017;-81
2022/03/04 05:21:37;;;;;;;27.17;13.40;;;;;;;-0.94;73.25;101957.88;5036336;28;20076;-81
2022/03/04 05:24:03;;;;;;;30.92;14.15;;;;;;;-0.96;73.06;101961.06;5030544;28;20027;-81
2022/03/04 05:26:40;;;;;;;27.45;14.90;;;;;;;-0.97;73.32;101962.72;5033859;28;20073;-81
2022/03/04 05:29:09;;;;;;;27.88;14.55;;;;;;;-0.99;73.14;101961.69;5032306;28;20021;-81
2022/03/04 05:31:35;;;;;;;27.10;14.60;;;;;;;-1.01;72.97;101958.09;5041819;28;20013;-81
2022/03/04 05:34:01;;;;;;;32.08;15.35;;;;;;;-1.01;73.31;101957.19;5033355;28;20024;-81
2022/03/04 05:36:26;;;;;;;27.00;14.52;;;;;;;-1.01;73.90;101958.09;5032239;28;20013;-81
2022/03/04 05:38:52;;;;;;;28.70;15.43;;;;;;;-0.99;73.55;101965.91;5033328;28;20032;-81
2022/03/04 05:41:17;;;;;;;29.67;14.50;;;;;;;-0.99;73.91;101966.78;5034340;28;20088;-81
2022/03/04 05:43:44;;;;;;;30.75;14.20;;;;;;;-1.00;73.58;101970.13;5028323;28;20010;-81
2022/03/04 05:46:10;;;;;;;28.15;14.00;;;;;;;-1.01;73.32;101970.88;5032131;28;20025;-81
2022/03/04 05:48:35;;;;;;;29.65;14.75;;;;;;;-1.02;72.87;101976.75;5031843;28;20144;-80
2022/03/04 05:51:01;;;;;;;29.48;15.15;;;;;;;-1.05;73.77;101976.50;5032975;28;20029;-81
2022/03/04 05:53:26;;;;;;;28.60;15.07;;;;;;;-1.07;73.42;101981.47;5040663;28;20025;-80
2022/03/04 05:55:52;;;;;;;27.50;15.00;;;;;;;-1.08;73.61;101984.78;5039156;28;20085;-81
2022/03/04 05:58:17;;;;;;;28.25;14.80;;;;;;;-1.07;74.68;101993.38;5033773;28;20014;-81
2022/03/04 06:00:43;;;;;;;33.15;15.48;;;;;;;-1.07;75.19;101988.25;5036835;28;20021;-81
2022/03/04 06:03:08;;;;;;;30.42;15.45;;;;;;;-1.06;75.08;101990.03;5032027;28;20056;-81
2022/03/04 06:05:34;;;;;;;27.73;15.07;;;;;;;-1.07;75.49;101999.38;5043996;28;20267;-81
2022/03/04 06:07:59;;;;;;;29.92;15.50;;;;;;;-1.06;75.60;101993.50;5044444;28;20032;-81
2022/03/04 06:10:25;;;;;;;29.90;15.75;;;;;;;-1.03;76.01;102000.53;5036904;28;20014;-81
2022/03/04 06:12:50;;;;;;;29.88;15.50;;;;;;;-1.02;75.99;101999.78;5039245;28;20049;-80
2022/03/04 06:15:16;;;;;;;33.63;16.60;;;;;;;-1.00;76.12;101995.72;5034794;28;20017;-81
2022/03/04 06:17:48;;;;;;;31.58;16.00;;;;;;;-0.97;76.33;101993.44;5038126;28;20028;-81
2022/03/04 06:20:15;;;;;;;31.98;15.93;;;;;;;-0.97;76.11;101998.53;5031389;28;20041;-81
2022/03/04 06:22:40;;;;;;;30.77;15.10;;;;;;;-0.95;76.31;102004.69;5027727;28;20047;-81
2022/03/04 06:25:06;;;;;;;33.72;16.17;;;;;;;-0.93;76.24;102002.25;5034614;28;20010;-81
2022/03/04 06:27:31;;;;;;;30.67;17.08;;;;;;;-0.92;76.27;102004.06;5038254;28;20310;-81
2022/03/04 06:29:56;;;;;;;33.55;16.88;;;;;;;-0.91;76.51;102001.63;5030289;28;20014;-80
2022/03/04 06:32:22;;;;;;;31.92;15.73;;;;;;;-0.90;76.16;102003.44;5033573;28;20021;-80
2022/03/04 06:34:47;;;;;;;31.75;16.35;;;;;;;-0.89;76.04;102004.31;5034850;28;20892;-80
2022/03/04 06:37:12;;;;;;;30.73;16.52;;;;;;;-0.90;76.17;102006.00;5030015;28;20039;-81
2022/03/04 06:39:39;;;;;;;31.73;16.55;;;;;;;-0.88;76.41;102016.38;5042858;28;20081;-80
2022/03/04 06:42:04;;;;;;;31.67;16.52;;;;;;;-0.86;76.14;102008.81;5042315;28;20021;-80
2022/03/04 06:44:29;;;;;;;31.65;16.30;;;;;;;-0.88;76.16;102011.25;5043861;28;20013;-80
2022/03/04 06:46:55;;;;;;;32.90;16.80;;;;;;;-0.86;76.03;102008.81;5044515;28;20013;-80
2022/03/04 06:49:20;;;;;;;31.58;16.45;;;;;;;-0.81;75.95;102011.03;5043261;28;20309;-80
2022/03/04 06:51:45;;;;;;;31.83;16.42;;;;;;;-0.77;76.50;102019.84;5044455;28;20017;-80
2022/03/04 06:54:11;;;;;;;30.67;16.30;;;;;;;-0.72;76.26;102016.94;5044827;28;20049;-81
2022/03/04 06:56:36;;;;;;;32.28;16.60;;;;;;;-0.63;75.54;102019.41;5036067;28;20044;-80
2022/03/04 06:59:01;;;;;;;34.13;17.08;;;;;;;-0.55;75.80;102021.00;5033447;28;20347;-81
2022/03/04 07:01:27;;;;;;;33.92;16.85;;;;;;;-0.45;76.02;102019.22;5034043;28;20025;-80
2022/03/04 07:03:53;;;;;;;30.63;16.17;;;;;;;-0.31;76.16;102028.09;5037643;28;20013;-80
2022/03/04 07:06:19;;;;;;;31.60;16.10;;;;;;;-0.07;75.59;102032.78;5041461;28;20022;-86
2022/03/04 07:08:44;;;;;;;35.42;17.50;;;;;;;0.16;74.85;102028.72;5030274;28;20060;-86
2022/03/04 07:11:10;;;;;;;32.38;16.55;;;;;;;0.38;73.52;102033.97;5033689;28;20207;-87
2022/03/04 07:13:35;;;;;;;36.30;17.00;;;;;;;0.46;72.61;102047.44;5034226;28;20087;-85
2022/03/04 07:16:02;;;;;;;29.73;16.55;;;;;;;0.46;73.11;102050.88;5031936;28;20042;-87
2022/03/04 07:18:31;;;;;;;30.30;15.88;;;;;;;0.47;72.86;102046.69;5039467;28;20025;-86
2022/03/04 07:20:57;;;;;;;34.15;16.80;;;;;;;0.45;73.31;102056.81;5031009;28;20010;-87
2022/03/04 07:23:24;;;;;;;30.48;16.75;;;;;;;0.44;72.89;102055.00;5026508;28;20078;-86
2022/03/04 07:25:49;;;;;;;33.15;17.33;;;;;;;0.45;73.54;102053.31;5036108;28;20048;-87
2022/03/04 07:28:15;;;;;;;33.58;16.88;;;;;;;0.42;73.25;102050.50;5031295;28;20014;-86
2022/03/04 07:30:41;;;;;;;29.85;15.77;;;;;;;0.39;73.62;102061.44;5030946;28;20021;-87
2022/03/04 07:33:06;;;;;;;28.70;16.00;;;;;;;0.37;73.20;102057.81;5037312;28;20044;-87
2022/03/04 07:35:32;;;;;;;29.73;17.15;;;;;;;0.51;73.66;102062.44;5032724;28;20014;-86
2022/03/04 07:37:57;;;;;;;31.75;16.90;;;;;;;0.73;73.07;102059.09;5039848;28;20068;-81
2022/03/04 07:40:23;;;;;;;31.40;16.15;;;;;;;0.84;72.51;102059.97;5028851;28;20024;-81
2022/03/04 07:42:48;;;;;;;31.02;16.52;;;;;;;0.81;72.60;102060.66;5026715;28;20025;-81
2022/03/04 07:45:14;;;;;;;30.90;16.65;;;;;;;0.92;73.35;102063.19;5035295;28;20017;-81
2022/03/04 07:47:41;;;;;;;30.50;16.13;;;;;;;1.16;72.23;102061.72;5030751;28;20022;-81
2022/03/04 07:50:09;;;;;;;30.48;16.98;;;;;;;1.32;71.24;102056.19;5026832;28;20014;-81
2022/03/04 07:52:35;;;;;;;31.35;16.63;;;;;;;1.43;71.02;102068.19;5026754;28;20188;-80
2022/03/04 07:55:06;;;;;;;31.17;16.10;;;;;;;1.49;71.63;102071.25;5029916;28;20026;-81
2022/03/04 07:57:32;;;;;;;29.58;16.00;;;;;;;1.55;71.66;102060.56;5038608;28;20020;-80
2022/03/04 07:59:59;;;;;;;32.10;16.48;;;;;;;1.78;71.42;102062.38;5034386;28;20037;-81
2022/03/04 08:02:25;;;;;;;30.80;16.00;;;;;;;2.07;70.28;102056.97;5033899;28;20017;-81
2022/03/04 08:04:53;;;;;;;29.85;15.88;;;;;;;2.33;69.15;102064.88;5031470;28;20032;-81
2022/03/04 08:07:19;;;;;;;28.30;15.43;;;;;;;2.50;68.78;102061.03;5034736;28;20084;-81
2022/03/04 08:09:45;;;;;;;29.88;16.83;;;;;;;2.66;68.44;102068.22;5036756;28;20018;-81
2022/03/04 08:12:11;;;;;;;31.70;17.38;;;;;;;2.99;67.46;102056.09;5034328;28;20036;-81
2022/03/04 08:14:36;;;;;;;32.63;17.15;;;;;;;3.45;65.80;102062.03;5038742;28;20022;-81
2022/03/04 08:17:02;;;;;;;33.22;16.45;;;;;;;4.00;64.43;102063.34;5037915;28;20089;-86
2022/03/04 08:19:28;;;;;;;31.63;16.40;;;;;;;4.00;63.59;102067.63;5040715;28;20216;-87
2022/03/04 08:21:53;;;;;;;29.38;16.70;;;;;;;3.68;64.00;102065.34;5040291;28;20112;-88
2022/03/04 08:24:21;;;;;;;34.30;16.42;;;;;;;3.34;64.68;102068.97;5037383;28;20267;-89
2022/03/04 08:26:46;;;;;;;30.45;16.17;;;;;;;3.09;65.85;102069.75;5037879;28;20029;-88
2022/03/04 08:29:12;;;;;;;32.30;16.92;;;;;;;2.90;66.58;102075.22;5027494;28;20258;-88
2022/03/04 08:31:37;;;;;;;35.58;17.77;;;;;;;2.77;67.42;102080.22;5036681;28;20033;-86
2022/03/04 08:34:03;;;;;;;34.22;16.35;;;;;;;2.70;67.50;102080.56;5033068;28;20085;-87
2022/03/04 08:36:28;;;;;;;29.73;15.88;;;;;;;2.66;68.10;102083.66;5028776;28;20153;-87
2022/03/04 08:38:54;;;;;;;32.40;16.45;;;;;;;2.64;67.89;102090.38;5030350;28;20040;-87
2022/03/04 08:41:20;;;;;;;28.90;15.52;;;;;;;2.62;67.96;102087.66;5027930;28;20187;-87
2022/03/04 08:43:47;;;;;;;31.38;16.55;;;;;;;2.64;68.20;102090.38;5037889;28;20036;-87
2022/03/04 08:46:13;;;;;;;29.25;15.77;;;;;;;2.65;68.44;102089.59;5027900;28;20021;-80
2022/03/04 08:48:39;;;;;;;28.67;15.32;;;;;;;2.70;68.48;102088.28;5033568;28;20013;-80
2022/03/04 08:51:05;;;;;;;29.80;16.23;;;;;;;2.74;67.07;102093.75;5035055;28;20030;-81
2022/03/04 08:53:30;;;;;;;28.90;16.02;;;;;;;2.78;67.26;102090.63;5027971;28;20026;-81
2022/03/04 08:55:56;;;;;;;29.23;15.63;;;;;;;2.83;67.08;102097.81;5028372;28;20022;-81
2022/03/04 08:58:21;;;;;;;29.20;16.55;;;;;;;2.89;67.32;102098.28;5028838;28;20033;-81
2022/03/04 09:00:47;;;;;;;30.05;16.05;;;;;;;2.95;66.19;102098.72;5032996;28;20025;-81
2022/03/04 09:03:12;;;;;;;29.08;15.65;;;;;;;3.02;66.28;102102.66;5029082;28;20299;-81
2022/03/04 09:05:37;;;;;;;30.80;15.93;;;;;;;3.08;66.39;102092.81;5027579;28;20033;-82
2022/03/04 09:08:03;;;;;;;27.67;15.55;;;;;;;3.13;66.93;102096.63;5035464;28;20020;-81
2022/03/04 09:10:29;;;;;;;29.52;16.40;;;;;;;3.20;66.49;102093.72;5036517;28;20041;-82
2022/03/04 09:12:54;;;;;;;30.38;16.52;;;;;;;3.29;65.54;102096.97;5031624;28;20057;-82
2022/03/04 09:15:20;;;;;;;29.17;16.52;;;;;;;3.38;65.54;102101.00;5028535;28;20172;-83
2022/03/04 09:17:45;;;;;;;28.52;16.13;;;;;;;3.44;65.70;102091.13;5027503;28;20013;-83
2022/03/04 09:20:11;;;;;;;30.35;16.85;;;;;;;3.51;66.68;102093.38;5029174;28;20026;-83
2022/03/04 09:22:37;;;;;;;29.65;16.15;;;;;;;3.60;66.03;102088.88;5030439;28;20037;-83
2022/03/04 09:25:03;;;;;;;31.63;16.25;;;;;;;3.70;64.92;102089.56;5029862;28;20079;-83
2022/03/04 09:27:28;;;;;;;29.80;16.10;;;;;;;3.78;66.43;102084.16;5031083;28;20033;-83
2022/03/04 09:29:54;;;;;;;29.85;16.60;;;;;;;3.87;64.98;102076.19;5031103;28;20014;-83
2022/03/04 09:32:19;;;;;;;28.77;15.93;;;;;;;3.96;64.88;102078.50;5032025;28;20021;-83
2022/03/04 09:34:45;;;;;;;31.67;16.13;;;;;;;4.06;64.27;102080.94;5035525;28;20010;-83
2022/03/04 09:37:10;;;;;;;29.75;15.85;;;;;;;4.14;64.33;102068.56;5033545;28;20271;-83
2022/03/04 09:39:35;;;;;;;27.15;15.45;;;;;;;4.24;63.88;102064.94;5038051;28;20366;-84
2022/03/04 09:42:01;;;;;;;28.52;16.20;;;;;;;4.32;64.53;102072.41;5032012;28;20132;-83
2022/03/04 09:44:26;;;;;;;27.83;15.63;;;;;;;4.42;64.61;102071.38;5033099;28;20029;-82
2022/03/04 09:46:53;;;;;;;30.77;16.40;;;;;;;4.54;63.68;102063.56;5029985;28;20067;-82
2022/03/04 09:49:18;;;;;;;31.95;15.80;;;;;;;4.63;62.63;102061.59;5035859;28;20041;-83
2022/03/04 09:51:44;;;;;;;30.73;16.05;;;;;;;4.73;61.23;102070.88;5034798;28;20259;-82
2022/03/04 09:54:10;;;;;;;33.92;17.52;;;;;;;4.82;62.61;102073.16;5033401;28;20140;-82
2022/03/04 09:56:35;;;;;;;33.15;16.95;;;;;;;4.95;63.43;102075.75;5030327;28;20301;-82
2022/03/04 09:59:00;;;;;;;32.60;16.70;;;;;;;5.07;62.71;102072.19;5032959;28;20158;-82
2022/03/04 10:01:26;;;;;;;30.15;15.88;;;;;;;5.16;60.57;102080.56;5028349;28;20207;-82
2022/03/04 10:03:53;;;;;;;29.83;16.55;;;;;;;5.25;60.12;102080.28;5034443;28;20029;-82
2022/03/04 10:06:20;;;;;;;33.47;16.00;;;;;;;5.31;57.71;102076.38;5031155;28;20096;-82
2022/03/04 10:08:48;;;;;;;31.58;16.25;;;;;;;5.36;58.63;102080.19;5035874;28;20080;-82
2022/03/04 10:11:25;;;;;;;34.05;18.30;;;;;;;5.47;59.96;102078.28;5037070;28;20152;-82
2022/03/04 10:13:52;;;;;;;30.20;17.55;;;;;;;5.56;58.92;102073.72;5033195;28;20030;-82
2022/03/04 10:16:26;;;;;;;33.35;16.73;;;;;;;5.66;59.25;102074.28;5042880;28;20231;-82
2022/03/04 10:19:17;;;;;;;29.73;16.25;;;;;;;5.73;59.54;102074.75;5043158;28;20025;-82
2022/03/04 10:21:56;;;;;;;33.53;17.40;;;;;;;5.83;58.11;102080.53;5043446;28;20014;-82
2022/03/04 10:24:31;;;;;;;29.63;16.77;;;;;;;5.95;59.63;102083.84;5040882;28;20166;-82
2022/03/04 10:27:04;;;;;;;34.08;17.98;;;;;;;6.06;57.05;102076.81;5046315;28;20278;-82
2022/03/04 10:29:32;;;;;;;33.40;17.67;;;;;;;6.14;56.31;102078.19;5035788;28;20109;-81
2022/03/04 10:32:19;;;;;;;32.75;17.90;;;;;;;6.23;57.85;102072.69;5038895;28;20025;-81
2022/03/04 10:34:50;;;;;;;35.33;18.05;;;;;;;6.35;57.72;102076.00;5040109;28;20085;-82
2022/03/04 10:37:39;;;;;;;34.45;18.27;;;;;;;6.43;55.24;102074.78;5034442;28;20081;-81
2022/03/04 10:40:06;;;;;;;39.88;19.58;;;;;;;6.52;56.50;102077.03;5038461;28;20176;-80
2022/03/04 10:42:43;;;;;;;37.97;19.48;;;;;;;6.63;58.41;102062.13;5038445;28;20021;-80
2022/03/04 10:45:11;;;;;;;35.33;18.80;;;;;;;6.74;57.38;102071.41;5038780;28;20013;-79
2022/03/04 10:47:44;;;;;;;38.30;19.33;;;;;;;6.86;55.87;102062.59;5041123;28;20057;-79
2022/03/04 10:50:11;;;;;;;37.72;19.25;;;;;;;6.95;55.44;102071.78;5031996;28;20041;-80
2022/03/04 10:52:48;;;;;;;38.28;19.75;;;;;;;7.05;54.72;102077.50;5032241;28;20260;-80
2022/03/04 10:55:33;;;;;;;40.90;20.73;;;;;;;7.13;55.40;102071.94;5038839;28;20270;-80
2022/03/04 10:58:01;;;;;;;40.97;20.90;;;;;;;7.20;55.18;102061.94;5035773;28;20292;-80
2022/03/04 11:00:29;;;;;;;39.03;20.98;;;;;;;7.29;55.03;102062.47;5038479;28;20033;-80
2022/03/04 11:02:55;;;;;;;38.28;21.17;;;;;;;7.39;54.46;102058.69;5040330;28;20072;-80
2022/03/04 11:05:23;;;;;;;39.03;20.77;;;;;;;7.48;53.78;102054.91;5042693;28;20001;-80
2022/03/04 11:07:51;;;;;;;42.22;21.08;;;;;;;7.58;54.16;102066.69;5024366;28;20040;-80
2022/03/04 11:10:48;;;;;;;45.50;22.75;;;;;;;7.67;55.00;102068.88;5041606;28;20085;-80